Lloydminster Airport
CYLL : now visible

Airfield :











YOU CAN JOIN US ON...

 
LOGIN :

Register | Disclaimer

   EN    FR    IT 

 









Legend :    VFR   Marginal VFR   IFR   Intensive IFR   Very Intensive IFR
Visi :
Ceiling :
>= 8 km
>= 3000ft
5 to 8 km
1000 to 3000 ft
1500m to 5 km
500 to 1000 ft
800 to 1500m
200 to 500 ft
< 800m
< 200 ft
Symbols :   Thunderstorms  Fog  Heavy snow  Heavy precipitations  Wind > 20 kt






- Airport Elevation : 2193 ft
- IATA code : YLL


CYLL - Lloydminster

CURRENT METAR :
  • 130300Z 23007KT 15SM SCT050CB SCT080 BKN140 BKN280 14/11 A2971 RMK CB3AC1AC1CI1 SLP070 DENSITY ALT 2900FT

EXPIRED METARs :
  • 130200Z 24007KT 15SM SCT050CB BKN120 BKN280 16/12 A2970 RMK CB4AC2CI1 SLP063 DENSITY ALT 3100FT
  • 130100Z 23007KT 15SM VCSH SCT050CB BKN100 BKN280 15/12 A2970 RMK CB5AC1CI1 SLP065 DENSITY ALT 3000FT

TAF AMD TAF CYLL
Valid from the 13 at 00:00 until the 13 at 12:00 UTC


130017Z 1300/1312 28010KT P6SM BKN040
TEMPO 1300/1302 VRB20G30KT 3SM TSRA BKN040CB
FM130200 28010KT P6SM BKN040
TEMPO 1302/1304 P6SM -SHRA VCTS BKN040CB
FM130400 28010KT P6SM BKN060
FM130900 28010KT P6SM SCT060 RMK NXT FCST BY 130600Z
CZEG FIR / North America



MET'MAP, your aeronautical weather chart ! - Copyright ORBIFLY December 2007 - Disclaimer

ORBIFLY MET'MAP TEAM :

Programming & Development : Alexandra Zaïnal
Concept & original design : Baudouin d'Aumeries
Assistance for programming : Marc-Olivier Méhu
Technical & hardware support : Manuel Goepfert

Contact : metmap@orbifly.com




SOURCES & CREDITS :

   NOAA       Earth
Advisory